createdAt,value
2018-09-25T00:01:39.495Z,102615.51
2018-09-25T00:04:12.302Z,102623.11
2018-09-25T00:06:45.341Z,102623.37
2018-09-25T00:09:18.451Z,102629.91
2018-09-25T00:11:51.479Z,102627.91
2018-09-25T00:14:24.588Z,102630.11
2018-09-25T00:16:57.637Z,102620.97
2018-09-25T00:19:30.416Z,102627.45
2018-09-25T00:22:03.503Z,102630.11
2018-09-25T00:24:36.471Z,102632.09
2018-09-25T00:27:09.523Z,102635.58
2018-09-25T00:29:42.524Z,102632.45
2018-09-25T00:32:16.615Z,102637.72
2018-09-25T00:34:49.742Z,102639.70
2018-09-25T00:37:22.722Z,102640.25
2018-09-25T00:39:56.591Z,102635.69
2018-09-25T00:42:29.630Z,102636.45
2018-09-25T00:45:02.715Z,102631.05
2018-09-25T00:47:35.678Z,102631.33
2018-09-25T00:50:08.696Z,102633.02
2018-09-25T00:52:41.769Z,102633.45
2018-09-25T00:55:14.780Z,102633.26
2018-09-25T00:57:47.756Z,102639.31
2018-09-25T01:00:20.878Z,102644.72
2018-09-25T01:02:53.842Z,102644.92
2018-09-25T01:05:26.946Z,102647.91
2018-09-25T01:08:00.018Z,102646.28
2018-09-25T01:10:32.924Z,102645.75
2018-09-25T01:13:05.868Z,102647.27
2018-09-25T01:15:38.874Z,102652.74
2018-09-25T01:18:12.662Z,102654.31
2018-09-25T01:20:45.799Z,102652.97
2018-09-25T01:23:18.895Z,102660.25
2018-09-25T01:25:51.794Z,102650.70
2018-09-25T01:28:24.808Z,102656.27
2018-09-25T01:30:57.995Z,102657.17
2018-09-25T01:33:30.863Z,102659.73
2018-09-25T01:36:04.424Z,102666.47
2018-09-25T01:38:37.416Z,102670.00
2018-09-25T01:41:10.475Z,102679.65
2018-09-25T01:43:43.597Z,102674.86
2018-09-25T01:46:16.427Z,102678.27
2018-09-25T01:48:49.363Z,102681.37
2018-09-25T01:51:22.335Z,102690.96
2018-09-25T01:53:55.431Z,102684.31
2018-09-25T01:56:29.087Z,102684.25
2018-09-25T01:59:02.151Z,102686.77
2018-09-25T02:01:35.044Z,102682.71
2018-09-25T02:04:08.167Z,102684.20
2018-09-25T02:06:41.139Z,102686.59
2018-09-25T02:09:14.116Z,102686.22
2018-09-25T02:11:46.955Z,102685.88
2018-09-25T02:14:20.707Z,102695.08
2018-09-25T02:16:53.895Z,102690.27
2018-09-25T02:19:33.667Z,102699.09
2018-09-25T02:22:06.644Z,102691.31
2018-09-25T02:24:39.555Z,102696.75
2018-09-25T02:27:12.501Z,102696.24
2018-09-25T02:29:45.480Z,102705.30
2018-09-25T02:32:21.330Z,102703.23
2018-09-25T02:34:54.506Z,102706.03
2018-09-25T02:37:27.574Z,102700.32
2018-09-25T02:40:00.707Z,102701.53
2018-09-25T02:42:33.716Z,102701.17
2018-09-25T02:45:06.779Z,102706.67
2018-09-25T02:47:39.812Z,102710.36
2018-09-25T02:50:12.808Z,102717.84
2018-09-25T02:52:45.880Z,102716.55
2018-09-25T02:55:18.940Z,102714.31
2018-09-25T02:57:52.014Z,102716.82
2018-09-25T03:00:24.864Z,102716.82
2018-09-25T03:02:57.884Z,102716.03
2018-09-25T03:05:31.429Z,102719.22
2018-09-25T03:08:04.553Z,102712.45
2018-09-25T03:10:37.493Z,102721.13
2018-09-25T03:13:10.727Z,102718.80
2018-09-25T03:15:43.676Z,102715.42
2018-09-25T03:18:16.750Z,102716.43
2018-09-25T03:20:49.763Z,102727.53
2018-09-25T03:23:22.632Z,102733.41
2018-09-25T03:25:55.534Z,102734.59
2018-09-25T03:28:28.525Z,102730.39
2018-09-25T03:31:02.108Z,102738.00
2018-09-25T03:33:35.237Z,102743.94
2018-09-25T03:36:08.309Z,102749.48
2018-09-25T03:38:41.441Z,102751.55
2018-09-25T03:41:14.482Z,102744.92
2018-09-25T03:43:48.634Z,102742.69
2018-09-25T03:46:21.667Z,102744.80
2018-09-25T03:48:55.310Z,102742.73
2018-09-25T03:51:28.254Z,102742.16
2018-09-25T03:54:01.298Z,102748.16
2018-09-25T03:56:34.080Z,102749.69
2018-09-25T03:59:07.176Z,102753.48
2018-09-25T04:01:40.130Z,102755.94
2018-09-25T04:04:13.263Z,102758.27
2018-09-25T04:06:46.314Z,102753.46
2018-09-25T04:09:19.439Z,102756.90
2018-09-25T04:11:52.385Z,102765.36
2018-09-25T04:14:25.433Z,102772.03
2018-09-25T04:16:58.475Z,102767.60
2018-09-25T04:19:31.465Z,102773.27
2018-09-25T04:22:04.566Z,102776.48
2018-09-25T04:24:37.689Z,102784.21
2018-09-25T04:27:10.489Z,102785.55
2018-09-25T04:29:43.611Z,102783.22
2018-09-25T04:32:16.614Z,102793.17
2018-09-25T04:34:49.723Z,102792.61
2018-09-25T04:37:22.667Z,102798.09
2018-09-25T04:39:56.075Z,102798.77
2018-09-25T04:42:29.072Z,102796.34
2018-09-25T04:45:02.217Z,102802.78
2018-09-25T04:47:35.293Z,102802.30
2018-09-25T04:50:08.460Z,102803.23
2018-09-25T04:52:41.518Z,102803.98
2018-09-25T04:55:14.666Z,102804.95
2018-09-25T04:57:47.591Z,102807.67
2018-09-25T05:00:20.636Z,102814.81
2018-09-25T05:02:53.563Z,102807.74
2018-09-25T05:05:26.710Z,102807.97
2018-09-25T05:07:59.810Z,102813.82
2018-09-25T05:10:32.828Z,102816.54
2018-09-25T05:13:05.772Z,102822.16
2018-09-25T05:15:38.584Z,102828.57
2018-09-25T05:18:11.727Z,102834.58
2018-09-25T05:20:44.644Z,102826.63
2018-09-25T05:23:17.739Z,102821.92
2018-09-25T05:25:50.746Z,102833.66
2018-09-25T05:28:23.678Z,102835.64
2018-09-25T05:30:56.508Z,102829.70
2018-09-25T05:33:29.575Z,102831.92
2018-09-25T05:36:02.688Z,102832.09
2018-09-25T05:38:35.774Z,102838.31
2018-09-25T05:41:08.859Z,102840.84
2018-09-25T05:43:41.930Z,102849.12
2018-09-25T05:46:15.046Z,102849.12
2018-09-25T05:48:48.087Z,102852.46
2018-09-25T05:51:21.046Z,102851.73
2018-09-25T05:53:54.124Z,102853.69
2018-09-25T05:56:27.209Z,102854.20
2018-09-25T05:59:00.225Z,102860.11
2018-09-25T06:01:33.295Z,102857.95
2018-09-25T06:04:06.311Z,102858.11
2018-09-25T06:06:39.311Z,102854.85
2018-09-25T06:09:13.543Z,102857.00
2018-09-25T06:11:46.803Z,102864.94
2018-09-25T06:14:20.005Z,102868.88
2018-09-25T06:16:53.156Z,102868.52
2018-09-25T06:19:26.223Z,102867.27
2018-09-25T06:21:59.249Z,102880.31
2018-09-25T06:24:32.228Z,102879.41
2018-09-25T06:27:05.320Z,102882.45
2018-09-25T06:29:38.213Z,102882.16
2018-09-25T06:32:11.312Z,102893.78
2018-09-25T06:34:45.183Z,102893.70
2018-09-25T06:37:18.221Z,102895.72
2018-09-25T06:39:51.178Z,102899.90
2018-09-25T06:42:24.274Z,102906.48
2018-09-25T06:44:57.327Z,102905.45
2018-09-25T06:47:30.455Z,102901.11
2018-09-25T06:50:03.501Z,102901.86
2018-09-25T06:52:36.665Z,102896.87
2018-09-25T06:55:09.735Z,102913.80
2018-09-25T06:57:42.812Z,102901.05
2018-09-25T07:00:16.309Z,102907.12
2018-09-25T07:02:49.391Z,102929.30
2018-09-25T07:05:22.450Z,102927.64
2018-09-25T07:07:55.512Z,102933.26
2018-09-25T07:10:28.342Z,102937.16
2018-09-25T07:13:01.271Z,102939.08
2018-09-25T07:15:34.322Z,102929.96
2018-09-25T07:18:07.493Z,102939.98
2018-09-25T07:20:40.948Z,102944.53
2018-09-25T07:23:14.025Z,102945.80
2018-09-25T07:25:47.086Z,102947.62
2018-09-25T07:28:20.142Z,102946.00
2018-09-25T07:30:52.963Z,102944.84
2018-09-25T07:33:26.102Z,102956.58
2018-09-25T07:35:59.052Z,102956.02
2018-09-25T07:38:32.783Z,102958.69
2018-09-25T07:41:05.742Z,102964.91
2018-09-25T07:43:38.745Z,102961.97
2018-09-25T07:46:11.907Z,102966.38
2018-09-25T07:48:45.029Z,102960.70
2018-09-25T07:51:18.009Z,102961.16
2018-09-25T07:53:51.007Z,102958.78
2018-09-25T07:56:23.988Z,102956.46
2018-09-25T07:58:57.001Z,102970.61
2018-09-25T08:01:30.061Z,102970.59
2018-09-25T08:04:03.216Z,102963.70
2018-09-25T08:06:36.248Z,102971.27
2018-09-25T08:09:11.515Z,102974.45
2018-09-25T08:11:44.372Z,102984.30
2018-09-25T08:14:17.518Z,102986.75
2018-09-25T08:16:50.506Z,102984.42
2018-09-25T08:19:23.451Z,102980.91
2018-09-25T08:22:01.637Z,102982.19
2018-09-25T08:24:35.206Z,102985.52
2018-09-25T08:27:08.291Z,102987.81
2018-09-25T08:29:41.278Z,102986.45
2018-09-25T08:32:14.122Z,102994.11
2018-09-25T08:34:47.176Z,102996.39
2018-09-25T08:37:20.351Z,102994.29
2018-09-25T08:39:53.394Z,102999.25
2018-09-25T08:42:26.423Z,102997.05
2018-09-25T08:44:59.415Z,102993.45
2018-09-25T08:47:32.450Z,103005.30
2018-09-25T08:50:05.385Z,103004.53
2018-09-25T08:52:38.328Z,103009.76
2018-09-25T08:55:11.367Z,103011.77
2018-09-25T08:57:44.563Z,103012.11
2018-09-25T09:00:17.556Z,103008.19
2018-09-25T09:02:50.763Z,103011.54
2018-09-25T09:05:23.953Z,103013.92
2018-09-25T09:07:56.983Z,103008.17
2018-09-25T09:10:30.111Z,103012.95
2018-09-25T09:13:03.177Z,103021.94
2018-09-25T09:15:36.287Z,103024.33
2018-09-25T09:18:09.213Z,103025.36
2018-09-25T09:20:42.295Z,103019.89
2018-09-25T09:23:15.347Z,103020.13
2018-09-25T09:25:48.335Z,103022.45
2018-09-25T09:28:21.430Z,103017.78
2018-09-25T09:30:54.307Z,103022.39
2018-09-25T09:33:27.325Z,103016.48
2018-09-25T09:36:00.320Z,103024.78
2018-09-25T09:38:33.392Z,103023.84
2018-09-25T09:41:06.396Z,103026.19
2018-09-25T09:43:39.456Z,103028.80
2018-09-25T09:46:12.470Z,103018.18
2018-09-25T09:48:45.415Z,103022.60
2018-09-25T09:51:18.534Z,103028.86
2018-09-25T09:53:51.530Z,103027.57
2018-09-25T09:56:24.836Z,103039.41
2018-09-25T09:58:57.564Z,103036.48
2018-09-25T10:01:32.498Z,103032.42
2018-09-25T10:04:05.716Z,103033.08
2018-09-25T10:06:39.340Z,103019.77
2018-09-25T10:09:13.872Z,103026.60
2018-09-25T10:11:47.382Z,103024.94
2018-09-25T10:14:21.498Z,103029.75
2018-09-25T10:16:54.568Z,103024.04
2018-09-25T10:19:27.665Z,103022.66
2018-09-25T10:22:00.711Z,103021.50
2018-09-25T10:24:33.754Z,103019.69
2018-09-25T10:27:06.815Z,103024.75
2018-09-25T10:29:39.832Z,103019.41
2018-09-25T10:32:12.816Z,103019.61
2018-09-25T10:34:45.912Z,103018.88
2018-09-25T10:37:18.978Z,103029.19
2018-09-25T10:39:51.949Z,103021.47
2018-09-25T10:42:25.021Z,103028.83
2018-09-25T10:44:58.051Z,103034.95
2018-09-25T10:47:31.337Z,103027.88
2018-09-25T10:50:04.503Z,103027.77
2018-09-25T10:52:37.642Z,103016.13
2018-09-25T10:55:10.623Z,103014.16
2018-09-25T10:57:43.723Z,103013.98
2018-09-25T11:00:16.680Z,103017.92
2018-09-25T11:02:49.817Z,103029.35
2018-09-25T11:05:22.948Z,103033.28
2018-09-25T11:07:56.072Z,103030.55
2018-09-25T11:10:29.062Z,103018.06
2018-09-25T11:13:02.173Z,103016.36
2018-09-25T11:15:35.076Z,103014.64
2018-09-25T11:18:08.140Z,103023.74
2018-09-25T11:20:41.150Z,103020.19
2018-09-25T11:23:14.208Z,103022.67
2018-09-25T11:25:47.218Z,103017.99
2018-09-25T11:28:20.286Z,103021.77
2018-09-25T11:30:53.091Z,103029.82
2018-09-25T11:33:26.849Z,103024.92
2018-09-25T11:36:00.499Z,103033.02
2018-09-25T11:38:33.365Z,103025.89
2018-09-25T11:41:06.436Z,103033.00
2018-09-25T11:43:39.491Z,103017.52
2018-09-25T11:46:12.565Z,103014.61
2018-09-25T11:48:45.551Z,103007.52
2018-09-25T11:51:18.559Z,102998.59
2018-09-25T11:53:51.597Z,102995.86
2018-09-25T11:56:24.643Z,102995.15
2018-09-25T11:58:57.591Z,103000.61
2018-09-25T12:01:30.569Z,102997.58
2018-09-25T12:04:03.698Z,102992.42
2018-09-25T12:06:36.684Z,102989.68
2018-09-25T12:09:12.851Z,102984.19
2018-09-25T12:11:46.175Z,102986.83
2018-09-25T12:14:19.343Z,102995.20
2018-09-25T12:16:52.189Z,102996.22
2018-09-25T12:19:25.238Z,102994.10
2018-09-25T12:21:58.395Z,103001.55
2018-09-25T12:24:31.627Z,102989.42
2018-09-25T12:27:04.623Z,103005.80
2018-09-25T12:29:37.902Z,102995.89
2018-09-25T12:32:10.925Z,102995.35
2018-09-25T12:34:43.943Z,102991.70
2018-09-25T12:37:16.815Z,102987.88
2018-09-25T12:39:49.899Z,102996.30
2018-09-25T12:42:22.973Z,102996.44
2018-09-25T12:44:56.242Z,102979.19
2018-09-25T12:47:29.288Z,102987.98
2018-09-25T12:50:02.497Z,102975.44
2018-09-25T12:52:35.530Z,102981.59
2018-09-25T12:55:08.450Z,102983.22
2018-09-25T12:57:41.416Z,102977.39
2018-09-25T13:00:14.534Z,102973.55
2018-09-25T13:02:47.489Z,102967.13
2018-09-25T13:05:20.552Z,102965.05
2018-09-25T13:07:53.550Z,102964.50
2018-09-25T13:10:26.426Z,102959.27
2018-09-25T13:12:59.378Z,102964.14
2018-09-25T13:15:32.490Z,102967.39
2018-09-25T13:18:05.542Z,102963.55
2018-09-25T13:20:46.634Z,102963.03
2018-09-25T13:23:19.610Z,102971.66
2018-09-25T13:25:52.774Z,102975.19
2018-09-25T13:28:26.328Z,102964.92
2018-09-25T13:30:59.391Z,102950.97
2018-09-25T13:33:32.263Z,102933.77
2018-09-25T13:36:05.390Z,102924.78
2018-09-25T13:38:38.537Z,102910.28
2018-09-25T13:41:11.413Z,102927.69
2018-09-25T13:43:44.404Z,102937.95
2018-09-25T13:46:17.507Z,102946.83
2018-09-25T13:48:50.731Z,102930.11
2018-09-25T13:51:23.595Z,102938.41
2018-09-25T13:53:56.619Z,102937.06
2018-09-25T13:56:29.565Z,102931.52
2018-09-25T13:59:03.474Z,102937.96
2018-09-25T14:01:36.506Z,102936.88
2018-09-25T14:04:09.591Z,102938.37
2018-09-25T14:06:42.690Z,102923.25
2018-09-25T14:09:16.148Z,102916.64
2018-09-25T14:11:49.952Z,102918.02
2018-09-25T14:14:23.112Z,102916.91
2018-09-25T14:16:56.290Z,102913.56
2018-09-25T14:19:29.327Z,102914.47
2018-09-25T14:22:02.218Z,102917.63
2018-09-25T14:24:35.452Z,102918.65
2018-09-25T14:27:08.544Z,102913.98
2018-09-25T14:29:41.531Z,102912.86
2018-09-25T14:32:14.568Z,102919.08
2018-09-25T14:34:47.872Z,102914.42
2018-09-25T14:37:20.899Z,102920.81
2018-09-25T14:39:53.880Z,102915.31
2018-09-25T14:42:26.919Z,102903.77
2018-09-25T14:44:59.830Z,102903.42
2018-09-25T14:47:32.790Z,102892.27
2018-09-25T14:50:05.583Z,102895.56
2018-09-25T14:52:38.749Z,102894.45
2018-09-25T14:55:11.781Z,102898.81
2018-09-25T14:57:44.819Z,102891.39
2018-09-25T15:00:17.857Z,102897.48
2018-09-25T15:02:50.914Z,102894.27
2018-09-25T15:05:24.043Z,102899.09
2018-09-25T15:07:57.043Z,102901.77
2018-09-25T15:10:30.178Z,102899.24
2018-09-25T15:13:03.277Z,102885.48
2018-09-25T15:15:36.196Z,102883.48
2018-09-25T15:18:09.130Z,102893.39
2018-09-25T15:20:42.226Z,102888.45
2018-09-25T15:23:15.317Z,102891.44
2018-09-25T15:25:48.298Z,102889.27
2018-09-25T15:28:21.436Z,102885.88
2018-09-25T15:30:54.348Z,102886.34
2018-09-25T15:33:27.392Z,102885.31
2018-09-25T15:36:00.304Z,102889.24
2018-09-25T15:38:33.408Z,102891.69
2018-09-25T15:41:06.286Z,102902.13
2018-09-25T15:43:39.464Z,102897.48
2018-09-25T15:46:12.469Z,102897.63
2018-09-25T15:48:45.623Z,102898.56
2018-09-25T15:51:18.683Z,102896.85
2018-09-25T15:53:51.718Z,102896.83
2018-09-25T15:56:25.422Z,102900.38
2018-09-25T15:58:58.352Z,102901.30
2018-09-25T16:01:31.208Z,102904.34
2018-09-25T16:04:04.177Z,102905.34
2018-09-25T16:06:37.244Z,102904.95
2018-09-25T16:09:13.194Z,102899.15
2018-09-25T16:11:46.614Z,102917.80
2018-09-25T16:14:19.641Z,102911.91
2018-09-25T16:16:52.724Z,102914.33
2018-09-25T16:19:25.840Z,102916.41
2018-09-25T16:21:58.798Z,102920.94
2018-09-25T16:24:31.850Z,102925.39
2018-09-25T16:27:04.922Z,102929.69
2018-09-25T16:29:38.632Z,102928.17
2018-09-25T16:32:11.610Z,102937.95
2018-09-25T16:34:45.312Z,102941.87
2018-09-25T16:37:18.341Z,102930.07
2018-09-25T16:39:51.477Z,102927.25
2018-09-25T16:42:24.541Z,102926.18
2018-09-25T16:44:57.603Z,102913.70
2018-09-25T16:47:30.783Z,102915.43
2018-09-25T16:50:03.665Z,102917.16
2018-09-25T16:52:36.661Z,102916.94
2018-09-25T16:55:10.295Z,102911.63
2018-09-25T16:57:43.441Z,102912.69
2018-09-25T17:00:16.426Z,102913.63
2018-09-25T17:02:49.509Z,102916.05
2018-09-25T17:05:22.530Z,102921.34
2018-09-25T17:07:55.547Z,102920.45
2018-09-25T17:10:28.473Z,102926.54
2018-09-25T17:13:01.497Z,102929.47
2018-09-25T17:15:34.564Z,102929.00
2018-09-25T17:18:07.602Z,102933.30
2018-09-25T17:20:41.260Z,102941.38
2018-09-25T17:23:14.712Z,102942.95
2018-09-25T17:25:47.922Z,102947.96
2018-09-25T17:28:20.892Z,102956.97
2018-09-25T17:30:54.094Z,102961.56
2018-09-25T17:33:27.656Z,102960.39
2018-09-25T17:36:00.732Z,102966.97
2018-09-25T17:38:33.773Z,102966.49
2018-09-25T17:41:06.696Z,102967.01
2018-09-25T17:43:39.842Z,102955.23
2018-09-25T17:46:12.910Z,102960.50
2018-09-25T17:48:46.045Z,102952.49
2018-09-25T17:51:19.077Z,102958.64
2018-09-25T17:53:52.149Z,102957.08
2018-09-25T17:56:25.149Z,102963.53
2018-09-25T17:58:58.695Z,102970.19
2018-09-25T18:01:31.643Z,102957.59
2018-09-25T18:04:04.705Z,102958.92
2018-09-25T18:06:37.742Z,102961.04
2018-09-25T18:09:13.163Z,102953.88
2018-09-25T18:11:46.616Z,102956.73
2018-09-25T18:14:19.607Z,102946.42
2018-09-25T18:16:52.658Z,102946.27
2018-09-25T18:19:25.818Z,102932.46
2018-09-25T18:21:59.129Z,102926.13
2018-09-25T18:24:32.041Z,102922.80
2018-09-25T18:27:05.123Z,102919.39
2018-09-25T18:29:38.244Z,102918.69
2018-09-25T18:32:12.529Z,102915.43
2018-09-25T18:34:45.535Z,102921.25
2018-09-25T18:37:18.542Z,102922.33
2018-09-25T18:39:51.627Z,102919.20
2018-09-25T18:42:24.742Z,102923.09
2018-09-25T18:44:57.522Z,102925.67
2018-09-25T18:47:30.694Z,102923.56
2018-09-25T18:50:03.742Z,102925.25
2018-09-25T18:52:36.848Z,102922.80
2018-09-25T18:55:09.858Z,102923.12
2018-09-25T18:57:42.813Z,102921.41
2018-09-25T19:00:15.856Z,102924.13
2018-09-25T19:02:48.910Z,102921.30
2018-09-25T19:05:22.006Z,102930.98
2018-09-25T19:07:54.861Z,102933.67
2018-09-25T19:10:27.939Z,102923.09
2018-09-25T19:13:01.023Z,102924.79
2018-09-25T19:15:34.085Z,102929.73
2018-09-25T19:18:07.939Z,102932.22
2018-09-25T19:20:41.080Z,102936.26
2018-09-25T19:23:14.316Z,102938.45
2018-09-25T19:25:47.390Z,102942.80
2018-09-25T19:28:20.539Z,102943.00
2018-09-25T19:30:53.659Z,102942.84
2018-09-25T19:33:26.688Z,102946.48
2018-09-25T19:35:59.707Z,102943.86
2018-09-25T19:38:32.707Z,102944.13
2018-09-25T19:41:06.221Z,102941.86
2018-09-25T19:43:39.280Z,102944.19
2018-09-25T19:46:12.246Z,102946.04
2018-09-25T19:48:45.359Z,102945.28
2018-09-25T19:51:18.397Z,102943.14
2018-09-25T19:53:51.405Z,102940.82
2018-09-25T19:56:24.443Z,102945.42
2018-09-25T19:58:57.399Z,102943.36
2018-09-25T20:01:30.379Z,102941.98
2018-09-25T20:04:03.452Z,102951.56
2018-09-25T20:06:36.599Z,102946.47
2018-09-25T20:09:10.936Z,102952.84
2018-09-25T20:11:44.015Z,102950.78
2018-09-25T20:14:17.555Z,102947.78
2018-09-25T20:16:51.155Z,102960.88
2018-09-25T20:19:24.344Z,102952.02
2018-09-25T20:21:57.392Z,102950.20
2018-09-25T20:24:30.508Z,102956.84
2018-09-25T20:27:03.488Z,102946.52
2018-09-25T20:29:36.481Z,102957.59
2018-09-25T20:32:09.940Z,102958.17
2018-09-25T20:34:43.044Z,102953.08
2018-09-25T20:37:16.157Z,102955.36
2018-09-25T20:39:49.119Z,102954.76
2018-09-25T20:42:22.214Z,102960.72
2018-09-25T20:44:55.383Z,102961.72
2018-09-25T20:47:28.411Z,102954.17
2018-09-25T20:50:01.444Z,102948.95
2018-09-25T20:52:37.211Z,102943.77
2018-09-25T20:55:10.548Z,102946.42
2018-09-25T20:57:43.664Z,102943.56
2018-09-25T21:00:16.584Z,102938.87
2018-09-25T21:02:49.596Z,102931.94
2018-09-25T21:05:22.661Z,102926.19
2018-09-25T21:07:55.720Z,102933.77
2018-09-25T21:10:28.820Z,102932.32
2018-09-25T21:13:02.315Z,102926.99
2018-09-25T21:15:35.294Z,102922.58
2018-09-25T21:18:08.256Z,102914.30
2018-09-25T21:20:41.282Z,102923.27
2018-09-25T21:23:14.230Z,102924.11
2018-09-25T21:25:47.135Z,102917.02
2018-09-25T21:28:20.195Z,102914.52
2018-09-25T21:30:53.736Z,102902.13
2018-09-25T21:33:26.730Z,102900.20
2018-09-25T21:35:59.557Z,102897.09
2018-09-25T21:38:33.221Z,102901.53
2018-09-25T21:41:06.289Z,102911.27
2018-09-25T21:43:39.311Z,102906.44
2018-09-25T21:46:12.387Z,102906.56
2018-09-25T21:48:45.304Z,102894.37
2018-09-25T21:51:18.399Z,102894.07
2018-09-25T21:53:51.336Z,102896.38
2018-09-25T21:56:24.419Z,102894.22
2018-09-25T21:58:57.433Z,102892.18
2018-09-25T22:01:30.387Z,102901.02
2018-09-25T22:04:03.502Z,102901.56
2018-09-25T22:06:36.330Z,102889.11
2018-09-25T22:09:12.009Z,102884.75
2018-09-25T22:11:45.350Z,102887.36
2018-09-25T22:14:18.205Z,102883.69
2018-09-25T22:16:51.353Z,102871.21
2018-09-25T22:19:24.257Z,102864.23
2018-09-25T22:21:57.292Z,102864.19
2018-09-25T22:24:30.355Z,102855.06
2018-09-25T22:27:03.485Z,102855.53
2018-09-25T22:29:36.422Z,102852.92
2018-09-25T22:32:09.397Z,102853.12
2018-09-25T22:34:42.408Z,102858.40
2018-09-25T22:37:16.012Z,102852.87
2018-09-25T22:39:49.121Z,102853.21
2018-09-25T22:42:22.135Z,102856.28
2018-09-25T22:44:55.604Z,102857.41
2018-09-25T22:47:28.645Z,102849.55
2018-09-25T22:50:01.803Z,102861.02
2018-09-25T22:52:34.899Z,102865.06
2018-09-25T22:55:08.015Z,102862.86
2018-09-25T22:57:41.111Z,102867.41
2018-09-25T23:00:14.066Z,102870.16
2018-09-25T23:02:47.199Z,102865.83
2018-09-25T23:05:20.239Z,102870.11
2018-09-25T23:07:53.262Z,102876.05
2018-09-25T23:10:26.121Z,102868.49
2018-09-25T23:12:59.263Z,102875.28
2018-09-25T23:15:32.279Z,102874.91
2018-09-25T23:18:05.424Z,102860.13
2018-09-25T23:20:38.520Z,102861.05
2018-09-25T23:23:15.918Z,102859.30
2018-09-25T23:25:49.063Z,102847.09
2018-09-25T23:28:22.670Z,102855.17
2018-09-25T23:30:55.680Z,102840.37
2018-09-25T23:33:28.628Z,102841.29
2018-09-25T23:36:01.549Z,102833.89
2018-09-25T23:38:34.517Z,102833.89
2018-09-25T23:41:11.442Z,102830.33
2018-09-25T23:44:00.543Z,102829.02
2018-09-25T23:46:34.193Z,102829.56
2018-09-25T23:50:06.968Z,102830.98
2018-09-25T23:52:38.538Z,102832.16
2018-09-25T23:55:11.636Z,102827.95
2018-09-25T23:57:52.886Z,102829.69
